createdAt,value
2018-05-13T00:02:04.362Z,10.87
2018-05-13T00:05:07.079Z,10.27
2018-05-13T00:08:09.633Z,12.13
2018-05-13T00:11:13.045Z,11.10
2018-05-13T00:14:15.634Z,11.90
2018-05-13T00:17:18.436Z,11.07
2018-05-13T00:20:21.022Z,11.77
2018-05-13T00:23:24.825Z,11.40
2018-05-13T00:26:27.417Z,12.60
2018-05-13T00:29:30.007Z,10.97
2018-05-13T00:32:32.578Z,13.30
2018-05-13T00:35:35.195Z,12.40
2018-05-13T00:38:37.815Z,12.60
2018-05-13T00:41:40.512Z,12.73
2018-05-13T00:44:43.201Z,11.57
2018-05-13T00:47:45.816Z,11.90
2018-05-13T00:50:48.421Z,11.23
2018-05-13T00:53:51.047Z,12.67
2018-05-13T00:56:53.663Z,11.33
2018-05-13T00:59:56.414Z,11.60
2018-05-13T01:02:59.079Z,10.27
2018-05-13T01:06:01.782Z,11.43
2018-05-13T01:09:04.427Z,11.27
2018-05-13T01:12:07.050Z,12.37
2018-05-13T01:15:09.663Z,11.33
2018-05-13T01:18:12.253Z,11.30
2018-05-13T01:21:14.815Z,11.43
2018-05-13T01:24:17.452Z,13.10
2018-05-13T01:27:20.033Z,11.30
2018-05-13T01:30:22.702Z,11.67
2018-05-13T01:33:25.278Z,10.50
2018-05-13T01:36:28.589Z,11.97
2018-05-13T01:39:31.406Z,13.30
2018-05-13T01:42:35.005Z,12.83
2018-05-13T01:45:37.572Z,14.73
2018-05-13T01:48:40.928Z,13.73
2018-05-13T01:51:43.711Z,12.80
2018-05-13T01:54:46.384Z,12.50
2018-05-13T01:57:55.201Z,11.80
2018-05-13T02:00:57.835Z,13.07
2018-05-13T02:04:00.774Z,11.30
2018-05-13T02:07:03.600Z,10.90
2018-05-13T02:10:06.209Z,11.60
2018-05-13T02:13:09.604Z,12.60
2018-05-13T02:16:12.228Z,11.57
2018-05-13T02:19:14.889Z,11.80
2018-05-13T02:22:18.274Z,11.00
2018-05-13T02:25:20.899Z,10.30
2018-05-13T02:28:23.501Z,10.80
2018-05-13T02:31:26.194Z,10.00
2018-05-13T02:34:28.787Z,10.53
2018-05-13T02:37:31.399Z,9.83
2018-05-13T02:40:34.033Z,10.20
2018-05-13T02:43:36.628Z,9.73
2018-05-13T02:46:39.268Z,9.37
2018-05-13T02:49:41.886Z,9.30
2018-05-13T02:52:44.536Z,9.53
2018-05-13T02:55:47.977Z,8.77
2018-05-13T02:58:50.624Z,9.17
2018-05-13T03:01:53.221Z,8.13
2018-05-13T03:04:55.933Z,8.40
2018-05-13T03:07:58.564Z,8.40
2018-05-13T03:11:01.227Z,9.00
2018-05-13T03:14:04.622Z,8.00
2018-05-13T03:17:07.294Z,7.70
2018-05-13T03:20:09.966Z,8.73
2018-05-13T03:23:12.589Z,7.60
2018-05-13T03:26:15.386Z,7.97
2018-05-13T03:29:18.604Z,9.50
2018-05-13T03:32:21.555Z,8.30
2018-05-13T03:35:25.016Z,9.23
2018-05-13T03:38:27.659Z,8.53
2018-05-13T03:41:30.255Z,7.20
2018-05-13T03:44:32.884Z,8.27
2018-05-13T03:47:35.567Z,9.57
2018-05-13T03:50:39.684Z,8.53
2018-05-13T03:53:42.289Z,8.40
2018-05-13T03:56:45.659Z,8.80
2018-05-13T03:59:48.264Z,8.37
2018-05-13T04:02:51.630Z,8.10
2018-05-13T04:05:54.245Z,7.70
2018-05-13T04:09:09.422Z,8.17
2018-05-13T04:12:24.764Z,8.60
2018-05-13T04:15:27.428Z,8.73
2018-05-13T04:18:30.054Z,8.03
2018-05-13T04:21:32.675Z,7.77
2018-05-13T04:24:35.263Z,8.10
2018-05-13T04:27:38.037Z,8.93
2018-05-13T04:30:40.653Z,9.10
2018-05-13T04:33:43.354Z,10.87
2018-05-13T04:36:46.195Z,9.70
2018-05-13T04:39:48.831Z,9.87
2018-05-13T04:42:51.442Z,9.83
2018-05-13T04:45:54.844Z,7.93
2018-05-13T04:48:57.501Z,9.23
2018-05-13T04:52:00.103Z,8.73
2018-05-13T04:55:03.572Z,10.30
2018-05-13T04:58:06.194Z,9.00
2018-05-13T05:01:08.799Z,9.50
2018-05-13T05:04:11.413Z,9.80
2018-05-13T05:07:14.172Z,9.10
2018-05-13T05:10:17.358Z,10.10
2018-05-13T05:13:19.978Z,10.73
2018-05-13T05:16:22.696Z,9.87
2018-05-13T05:19:25.289Z,9.60
2018-05-13T05:22:28.709Z,11.00
2018-05-13T05:25:31.304Z,9.87
2018-05-13T05:28:33.912Z,10.80
2018-05-13T05:31:36.656Z,9.50
2018-05-13T05:34:39.340Z,11.50
2018-05-13T05:37:41.951Z,9.97
2018-05-13T05:40:44.578Z,10.97
2018-05-13T05:43:47.187Z,11.10
2018-05-13T05:46:49.804Z,10.60
2018-05-13T05:49:52.403Z,10.90
2018-05-13T05:52:55.061Z,10.07
2018-05-13T05:55:57.662Z,9.33
2018-05-13T05:59:00.291Z,9.80
2018-05-13T06:02:02.892Z,9.73
2018-05-13T06:05:05.547Z,9.53
2018-05-13T06:08:09.048Z,9.53
2018-05-13T06:11:12.434Z,9.70
2018-05-13T06:14:15.657Z,9.90
2018-05-13T06:17:18.254Z,10.20
2018-05-13T06:20:20.910Z,9.60
2018-05-13T06:23:23.525Z,10.67
2018-05-13T06:26:27.059Z,8.60
2018-05-13T06:29:29.702Z,10.13
2018-05-13T06:32:32.327Z,9.60
2018-05-13T06:35:34.994Z,9.90
2018-05-13T06:38:37.637Z,9.60
2018-05-13T06:41:40.232Z,8.73
2018-05-13T06:44:42.837Z,9.17
2018-05-13T06:47:46.275Z,9.93
2018-05-13T06:50:49.657Z,10.17
2018-05-13T06:53:53.107Z,10.43
2018-05-13T06:56:55.719Z,10.10
2018-05-13T06:59:58.788Z,10.57
2018-05-13T07:03:01.550Z,11.33
2018-05-13T07:06:04.171Z,9.23
2018-05-13T07:09:06.796Z,10.90
2018-05-13T07:12:09.507Z,11.50
2018-05-13T07:15:13.144Z,9.20
2018-05-13T07:18:16.416Z,9.90
2018-05-13T07:21:20.807Z,9.73
2018-05-13T07:24:23.527Z,8.80
2018-05-13T07:27:26.212Z,10.00
2018-05-13T07:30:28.859Z,9.48
2018-05-13T07:33:31.455Z,8.48
2018-05-13T07:36:34.822Z,9.68
2018-05-13T07:39:37.472Z,10.32
2018-05-13T07:42:40.225Z,9.55
2018-05-13T07:45:43.151Z,9.80
2018-05-13T07:48:45.778Z,8.52
2018-05-13T07:51:48.400Z,9.57
2018-05-13T07:54:51.022Z,9.65
2018-05-13T07:57:55.410Z,10.30
2018-05-13T08:00:58.210Z,9.15
2018-05-13T08:04:00.819Z,10.15
2018-05-13T08:07:04.189Z,10.18
2018-05-13T08:10:06.781Z,9.15
2018-05-13T08:13:09.410Z,10.35
2018-05-13T08:16:12.969Z,10.10
2018-05-13T08:19:15.600Z,10.55
2018-05-13T08:22:18.197Z,11.02
2018-05-13T08:25:20.875Z,10.40
2018-05-13T08:28:23.595Z,9.65
2018-05-13T08:31:26.403Z,11.57
2018-05-13T08:34:29.044Z,10.20
2018-05-13T08:37:31.659Z,13.00
2018-05-13T08:40:34.260Z,11.67
2018-05-13T08:43:36.864Z,11.67
2018-05-13T08:46:39.515Z,12.47
2018-05-13T08:49:42.175Z,11.10
2018-05-13T08:52:44.796Z,11.40
2018-05-13T08:55:47.377Z,12.03
2018-05-13T08:58:50.007Z,12.20
2018-05-13T09:01:53.344Z,12.13
2018-05-13T09:04:55.942Z,11.20
2018-05-13T09:07:58.586Z,11.13
2018-05-13T09:11:01.176Z,10.10
2018-05-13T09:14:03.802Z,11.63
2018-05-13T09:17:07.963Z,11.97
2018-05-13T09:20:11.546Z,11.40
2018-05-13T09:23:14.134Z,12.00
2018-05-13T09:26:16.839Z,12.60
2018-05-13T09:29:19.517Z,12.20
2018-05-13T09:32:22.123Z,12.00
2018-05-13T09:35:24.725Z,12.33
2018-05-13T09:38:27.388Z,12.67
2018-05-13T09:41:30.010Z,11.70
2018-05-13T09:44:32.650Z,11.70
2018-05-13T09:47:35.216Z,11.53
2018-05-13T09:50:37.848Z,12.00
2018-05-13T09:53:40.448Z,11.07
2018-05-13T09:56:43.112Z,10.83
2018-05-13T09:59:45.919Z,11.13
2018-05-13T10:02:48.495Z,10.70
2018-05-13T10:05:51.183Z,10.40
2018-05-13T10:08:53.901Z,10.97
2018-05-13T10:11:56.531Z,9.60
2018-05-13T10:14:59.157Z,10.07
2018-05-13T10:18:01.793Z,11.70
2018-05-13T10:21:04.399Z,12.70
2018-05-13T10:24:06.969Z,10.60
2018-05-13T10:27:09.637Z,10.20
2018-05-13T10:30:12.199Z,10.47
2018-05-13T10:33:14.839Z,10.30
2018-05-13T10:36:18.316Z,10.50
2018-05-13T10:39:20.866Z,11.10
2018-05-13T10:42:23.532Z,10.93
2018-05-13T10:45:26.182Z,9.87
2018-05-13T10:48:29.612Z,9.40
2018-05-13T10:51:32.221Z,9.70
2018-05-13T10:54:34.810Z,10.43
2018-05-13T10:57:37.384Z,9.30
2018-05-13T11:00:39.950Z,9.87
2018-05-13T11:03:42.585Z,10.17
2018-05-13T11:06:45.187Z,9.47
2018-05-13T11:09:47.890Z,9.23
2018-05-13T11:12:50.613Z,9.60
2018-05-13T11:15:53.255Z,9.67
2018-05-13T11:18:55.875Z,9.90
2018-05-13T11:21:59.103Z,8.53
2018-05-13T11:25:01.739Z,9.00
2018-05-13T11:28:04.312Z,9.00
2018-05-13T11:31:06.972Z,9.40
2018-05-13T11:34:09.588Z,8.40
2018-05-13T11:37:12.252Z,8.80
2018-05-13T11:40:14.872Z,8.33
2018-05-13T11:43:17.510Z,9.50
2018-05-13T11:46:20.195Z,8.63
2018-05-13T11:49:22.785Z,8.90
2018-05-13T11:52:25.348Z,8.97
2018-05-13T11:55:27.967Z,9.67
2018-05-13T11:58:30.588Z,10.13
2018-05-13T12:01:33.192Z,9.50
2018-05-13T12:04:35.837Z,8.57
2018-05-13T12:07:38.401Z,9.33
2018-05-13T12:10:41.753Z,10.63
2018-05-13T12:13:45.107Z,9.80
2018-05-13T12:16:47.711Z,9.10
2018-05-13T12:19:50.927Z,9.10
2018-05-13T12:22:53.520Z,9.00
2018-05-13T12:25:56.929Z,9.37
2018-05-13T12:28:59.628Z,10.50
2018-05-13T12:32:02.249Z,9.40
2018-05-13T12:35:04.886Z,9.40
2018-05-13T12:38:07.471Z,9.10
2018-05-13T12:41:10.059Z,9.27
2018-05-13T12:44:12.762Z,8.33
2018-05-13T12:47:15.382Z,9.10
2018-05-13T12:50:18.023Z,9.77
2018-05-13T12:53:20.648Z,9.27
2018-05-13T12:56:23.272Z,10.03
2018-05-13T12:59:25.848Z,8.67
2018-05-13T13:02:28.504Z,8.50
2018-05-13T13:05:31.413Z,8.77
2018-05-13T13:08:34.143Z,9.73
2018-05-13T13:11:37.483Z,8.80
2018-05-13T13:14:40.936Z,7.90
2018-05-13T13:17:43.534Z,9.03
2018-05-13T13:20:46.223Z,9.10
2018-05-13T13:23:48.827Z,8.13
2018-05-13T13:26:52.221Z,8.73
2018-05-13T13:29:54.863Z,9.70
2018-05-13T13:32:57.529Z,7.50
2018-05-13T13:36:00.187Z,8.07
2018-05-13T13:39:02.967Z,7.97
2018-05-13T13:42:05.551Z,7.40
2018-05-13T13:45:08.181Z,7.90
2018-05-13T13:48:10.936Z,7.90
2018-05-13T13:51:13.701Z,7.97
2018-05-13T13:54:16.357Z,9.00
2018-05-13T13:57:19.014Z,9.53
2018-05-13T14:00:21.690Z,8.03
2018-05-13T14:03:24.387Z,8.73
2018-05-13T14:06:26.971Z,9.93
2018-05-13T14:09:29.601Z,8.23
2018-05-13T14:12:32.321Z,9.57
2018-05-13T14:15:34.984Z,7.83
2018-05-13T14:18:38.210Z,7.30
2018-05-13T14:21:40.887Z,6.80
2018-05-13T14:24:43.531Z,6.23
2018-05-13T14:27:46.158Z,6.60
2018-05-13T14:30:48.837Z,6.70
2018-05-13T14:33:51.465Z,6.37
2018-05-13T14:36:54.047Z,6.03
2018-05-13T14:39:56.705Z,6.37
2018-05-13T14:42:59.338Z,4.53
2018-05-13T14:46:02.040Z,5.73
2018-05-13T14:49:04.741Z,4.90
2018-05-13T14:52:07.333Z,4.47
2018-05-13T14:55:10.047Z,7.73
2018-05-13T14:58:14.227Z,7.13
2018-05-13T15:01:16.881Z,9.20
2018-05-13T15:04:19.581Z,6.70
2018-05-13T15:07:31.113Z,6.37
2018-05-13T15:10:33.791Z,5.83
2018-05-13T15:13:36.416Z,7.10
2018-05-13T15:16:39.262Z,4.70
2018-05-13T15:19:41.942Z,5.23
2018-05-13T15:22:44.568Z,6.33
2018-05-13T15:25:47.952Z,9.03
2018-05-13T15:28:50.599Z,8.10
2018-05-13T15:31:53.207Z,9.03
2018-05-13T15:34:56.667Z,8.93
2018-05-13T15:37:59.463Z,8.77
2018-05-13T15:41:02.127Z,8.23
2018-05-13T15:44:04.878Z,7.30
2018-05-13T15:47:07.529Z,7.77
2018-05-13T15:50:10.502Z,7.63
2018-05-13T15:53:13.168Z,7.97
2018-05-13T15:56:15.846Z,7.07
2018-05-13T15:59:18.455Z,7.80
2018-05-13T16:02:21.214Z,6.93
2018-05-13T16:05:23.884Z,6.87
2018-05-13T16:08:26.638Z,7.97
2018-05-13T16:11:29.292Z,7.17
2018-05-13T16:14:31.925Z,6.13
2018-05-13T16:17:35.199Z,7.70
2018-05-13T16:20:37.877Z,8.57
2018-05-13T16:23:42.135Z,8.13
2018-05-13T16:26:45.508Z,7.97
2018-05-13T16:29:48.134Z,9.20
2018-05-13T16:32:50.740Z,8.27
2018-05-13T16:35:53.494Z,8.50
2018-05-13T16:38:56.129Z,9.20
2018-05-13T16:41:58.782Z,7.70
2018-05-13T16:45:01.580Z,7.80
2018-05-13T16:48:04.546Z,8.20
2018-05-13T16:51:07.227Z,8.53
2018-05-13T16:54:09.949Z,10.10
2018-05-13T16:57:12.579Z,8.43
2018-05-13T17:00:15.957Z,9.50
2018-05-13T17:03:18.592Z,9.30
2018-05-13T17:06:21.202Z,9.63
2018-05-13T17:09:23.959Z,9.10
2018-05-13T17:12:27.134Z,8.30
2018-05-13T17:15:29.927Z,9.40
2018-05-13T17:18:32.606Z,8.20
2018-05-13T17:21:35.364Z,9.17
2018-05-13T17:24:38.184Z,10.03
2018-05-13T17:27:40.930Z,10.40
2018-05-13T17:30:44.501Z,10.27
2018-05-13T17:33:47.094Z,11.30
2018-05-13T17:36:49.998Z,8.93
2018-05-13T17:39:53.523Z,10.40
2018-05-13T17:42:56.501Z,9.53
2018-05-13T17:45:59.161Z,8.40
2018-05-13T17:49:01.811Z,11.80
2018-05-13T17:52:04.916Z,9.80
2018-05-13T17:55:07.658Z,10.60
2018-05-13T17:58:10.677Z,10.67
2018-05-13T18:01:15.558Z,9.17
2018-05-13T18:04:18.299Z,8.30
2018-05-13T18:07:21.797Z,10.43
2018-05-13T18:10:24.451Z,8.47
2018-05-13T18:13:27.374Z,9.60
2018-05-13T18:16:30.160Z,9.27
2018-05-13T18:19:32.834Z,9.70
2018-05-13T18:22:36.232Z,7.80
2018-05-13T18:25:38.929Z,8.00
2018-05-13T18:28:41.607Z,7.10
2018-05-13T18:31:44.259Z,8.33
2018-05-13T18:34:46.911Z,7.87
2018-05-13T18:37:49.500Z,9.30
2018-05-13T18:40:52.144Z,10.13
2018-05-13T18:43:54.875Z,9.10
2018-05-13T18:46:57.506Z,8.80
2018-05-13T18:50:00.120Z,8.97
2018-05-13T18:53:02.918Z,8.60
2018-05-13T18:56:05.888Z,11.17
2018-05-13T18:59:08.687Z,8.07
2018-05-13T19:02:11.400Z,9.13
2018-05-13T19:05:14.045Z,8.50
2018-05-13T19:08:16.655Z,9.90
2018-05-13T19:11:19.247Z,9.10
2018-05-13T19:14:21.899Z,9.80
2018-05-13T19:17:24.632Z,9.63
2018-05-13T19:20:28.168Z,10.63
2018-05-13T19:23:30.848Z,10.20
2018-05-13T19:26:33.762Z,9.17
2018-05-13T19:29:37.033Z,9.73
2018-05-13T19:32:40.375Z,10.10
2018-05-13T19:35:43.016Z,10.50
2018-05-13T19:38:45.806Z,9.10
2018-05-13T19:41:49.368Z,10.70
2018-05-13T19:44:51.914Z,8.77
2018-05-13T19:47:54.694Z,8.90
2018-05-13T19:50:57.453Z,9.00
2018-05-13T19:54:00.094Z,7.53
2018-05-13T19:57:02.910Z,7.73
2018-05-13T20:00:05.598Z,9.13
2018-05-13T20:03:08.390Z,7.90
2018-05-13T20:06:10.980Z,7.70
2018-05-13T20:09:13.824Z,8.20
2018-05-13T20:12:17.345Z,8.27
2018-05-13T20:15:20.058Z,6.87
2018-05-13T20:18:22.641Z,8.00
2018-05-13T20:21:25.260Z,7.87
2018-05-13T20:24:27.843Z,8.20
2018-05-13T20:27:30.408Z,7.57
2018-05-13T20:30:33.064Z,7.77
2018-05-13T20:33:35.635Z,8.57
2018-05-13T20:36:39.220Z,8.80
2018-05-13T20:39:41.843Z,7.97
2018-05-13T20:42:44.641Z,7.27
2018-05-13T20:45:47.516Z,7.17
2018-05-13T20:48:50.112Z,7.30
2018-05-13T20:51:52.707Z,7.00
2018-05-13T20:54:55.291Z,6.53
2018-05-13T20:57:57.912Z,7.27
2018-05-13T21:01:01.271Z,6.80
2018-05-13T21:04:03.976Z,6.70
2018-05-13T21:07:08.052Z,6.73
2018-05-13T21:10:10.682Z,7.60
2018-05-13T21:13:13.272Z,6.70
2018-05-13T21:16:16.009Z,7.33
2018-05-13T21:19:18.655Z,6.10
2018-05-13T21:22:21.257Z,8.30
2018-05-13T21:25:24.866Z,7.47
2018-05-13T21:28:27.466Z,7.10
2018-05-13T21:31:30.055Z,6.80
2018-05-13T21:34:32.677Z,7.00
2018-05-13T21:37:35.348Z,7.53
2018-05-13T21:40:37.883Z,7.03
2018-05-13T21:43:40.492Z,6.60
2018-05-13T21:46:58.888Z,6.20
2018-05-13T21:50:01.484Z,7.57
2018-05-13T21:53:04.081Z,7.73
2018-05-13T21:56:06.703Z,7.50
2018-05-13T21:59:09.261Z,7.27
2018-05-13T22:02:12.001Z,6.73
2018-05-13T22:05:14.623Z,6.80
2018-05-13T22:08:17.240Z,7.13
2018-05-13T22:11:19.836Z,6.83
2018-05-13T22:14:22.551Z,6.67
2018-05-13T22:17:25.185Z,7.40
2018-05-13T22:20:28.562Z,6.77
2018-05-13T22:23:31.203Z,7.50
2018-05-13T22:26:34.551Z,7.43
2018-05-13T22:29:38.491Z,6.05
2018-05-13T22:32:41.059Z,6.50
2018-05-13T22:35:43.692Z,7.20
2018-05-13T22:38:46.552Z,6.07
2018-05-13T22:41:49.909Z,6.77
2018-05-13T22:44:52.496Z,6.83
2018-05-13T22:47:55.081Z,6.60
2018-05-13T22:50:57.688Z,8.00
2018-05-13T22:54:00.276Z,6.20
2018-05-13T22:57:02.897Z,6.20
2018-05-13T23:00:05.542Z,6.03
2018-05-13T23:03:08.569Z,6.07
2018-05-13T23:06:11.183Z,5.93
2018-05-13T23:09:14.079Z,6.90
2018-05-13T23:12:16.634Z,6.43
2018-05-13T23:15:19.318Z,6.40
2018-05-13T23:18:21.955Z,7.20
2018-05-13T23:21:24.619Z,7.10
2018-05-13T23:24:27.211Z,6.33
2018-05-13T23:27:29.803Z,5.97
2018-05-13T23:30:32.419Z,6.13
2018-05-13T23:33:34.998Z,6.27
2018-05-13T23:36:37.611Z,6.97
2018-05-13T23:39:40.194Z,6.40
2018-05-13T23:42:42.808Z,7.30
2018-05-13T23:45:46.883Z,6.30
2018-05-13T23:48:49.482Z,5.87
2018-05-13T23:51:52.045Z,6.40
2018-05-13T23:54:54.642Z,5.67
2018-05-13T23:57:57.225Z,6.23
